Aster — CURM9 — position and weather

sailwx.info

Track history (hours):
 
Tides and Currents Weather Stations Pressure Air Temp Water Temp Dewpoint Dewpoint Depression Visibility Wind Speed Wind Dir Waves Ship Positions

Aster

Last reported at 2018-Feb-19 04:03 UTC. Time now 2018-Feb-20 04:04 UTC.
Position N 39°16' W 009°29'.

Length 25 m.

Type: Fishing. MMSI: 263402890.

Date/timePositionNaut miles runAvg speedWind from/ knotsBaromVisibWave heightAir tempDewpointWater temp
2018-Feb-19 04:03N 39°16' W 009°29'1 8.7
2018-Feb-19 03:58N 39°16' W 009°29'4 8.7
2018-Feb-19 03:30N 39°11' W 009°30'4 8.5
2018-Feb-19 03:00N 39°07' W 009°29'4 8.9
2018-Feb-19 02:30N 39°03' W 009°31'4 8.9
2018-Feb-19 02:00N 38°59' W 009°32'6 8.8
2018-Feb-19 01:19N 38°53' W 009°33'3 8.8
2018-Feb-19 01:00N 38°50' W 009°33'4 8.7
2018-Feb-19 00:30N 38°45' W 009°33'4 8.7
2018-Feb-19 00:00N 38°41' W 009°31'4 8.8
2018-Feb-18 23:30N 38°37' W 009°29'4 8.6
2018-Feb-18 23:00N 38°33' W 009°27'4 8.6
2018-Feb-18 22:30N 38°29' W 009°25'41 5.1
2018-Feb-18 14:29N 37°50' W 009°14'1 2.6
2018-Feb-18 14:00N 37°48' W 009°15'1 2.8
2018-Feb-18 13:30N 37°47' W 009°15'1 2.7
2018-Feb-18 13:00N 37°46' W 009°15'4 0.4
2018-Feb-18 03:38N 37°47' W 009°11'1 4.1
2018-Feb-18 03:30N 37°48' W 009°11'  
2018-Feb-15 18:12N 37°42' W 009°10'1 2.9
2018-Feb-15 17:58N 37°43' W 009°10'4 0.4
2018-Feb-15 07:29N 37°47' W 009°09'2 3.5
2018-Feb-15 07:00N 37°49' W 009°10'1 1.1
2018-Feb-15 06:30N 37°49' W 009°11'1 2.7
2018-Feb-15 06:00N 37°50' W 009°11'2 3.0
2018-Feb-15 05:30N 37°51' W 009°11'1 2.9
2018-Feb-15 05:00N 37°53' W 009°12'1 2.9
2018-Feb-15 04:30N 37°54' W 009°11'1 3.0
2018-Feb-15 04:00N 37°56' W 009°11'2 3.0
2018-Feb-15 03:30N 37°57' W 009°11'1 2.9
2018-Feb-15 03:00N 37°59' W 009°10'1 2.8
2018-Feb-15 02:30N 37°60' W 009°09'1 2.7
2018-Feb-15 02:00N 38°01' W 009°09'2 3.9
2018-Feb-15 01:30N 38°03' W 009°08'4 8.0
2018-Feb-15 01:00N 38°07' W 009°08'4 8.1
2018-Feb-15 00:30N 38°11' W 009°08'4 7.9
2018-Feb-15 00:00N 38°15' W 009°07'4 8.2
2018-Feb-14 23:30N 38°19' W 009°07'4 8.2
2018-Feb-14 22:58N 38°23' W 009°06'3 6.2
2018-Feb-14 22:29N 38°26' W 009°07'0 0.4
2018-Feb-14 22:00N 38°26' W 009°07'0 0.0
2018-Feb-14 21:29N 38°26' W 009°07'0 0.0
2018-Feb-14 21:00N 38°26' W 009°07'0 0.0
2018-Feb-14 20:30N 38°26' W 009°07'0 0.0
2018-Feb-14 20:00N 38°26' W 009°07'0 0.0
2018-Feb-14 17:26N 38°26' W 009°07'0 0.0
2018-Feb-14 16:58N 38°26' W 009°07'0 0.9
2018-Feb-14 16:30N 38°26' W 009°06'5 8.7
2018-Feb-14 15:55N 38°24' W 009°13'55 4.8
2018-Feb-14 04:32N 39°10' W 009°50'0 4.0
2018-Feb-14 04:30N 39°11' W 009°50'  
Track history (hours):
 
Tides and Currents Weather Stations Pressure Air Temp Water Temp Dewpoint Dewpoint Depression Visibility Wind Speed Wind Dir Waves Ship Positions

Aster

Last reported at 2018-Feb-19 04:03 UTC. Time now 2018-Feb-20 04:04 UTC.
Position N 39°16' W 009°29'.

Length 25 m.

Type: Fishing. MMSI: 263402890.

Date/timePositionNaut miles runAvg speedWind from/ knotsBaromVisibWave heightAir tempDewpointWater temp
2018-Feb-19 04:03N 39°16' W 009°29'1 8.7
2018-Feb-19 03:58N 39°16' W 009°29'4 8.7
2018-Feb-19 03:30N 39°11' W 009°30'4 8.5
2018-Feb-19 03:00N 39°07' W 009°29'4 8.9
2018-Feb-19 02:30N 39°03' W 009°31'4 8.9
2018-Feb-19 02:00N 38°59' W 009°32'6 8.8
2018-Feb-19 01:19N 38°53' W 009°33'3 8.8
2018-Feb-19 01:00N 38°50' W 009°33'4 8.7
2018-Feb-19 00:30N 38°45' W 009°33'4 8.7
2018-Feb-19 00:00N 38°41' W 009°31'4 8.8
2018-Feb-18 23:30N 38°37' W 009°29'4 8.6
2018-Feb-18 23:00N 38°33' W 009°27'4 8.6
2018-Feb-18 22:30N 38°29' W 009°25'41 5.1
2018-Feb-18 14:29N 37°50' W 009°14'1 2.6
2018-Feb-18 14:00N 37°48' W 009°15'1 2.8
2018-Feb-18 13:30N 37°47' W 009°15'1 2.7
2018-Feb-18 13:00N 37°46' W 009°15'4 0.4
2018-Feb-18 03:38N 37°47' W 009°11'1 4.1
2018-Feb-18 03:30N 37°48' W 009°11'  
2018-Feb-15 18:12N 37°42' W 009°10'1 2.9
2018-Feb-15 17:58N 37°43' W 009°10'4 0.4
2018-Feb-15 07:29N 37°47' W 009°09'2 3.5
2018-Feb-15 07:00N 37°49' W 009°10'1 1.1
2018-Feb-15 06:30N 37°49' W 009°11'1 2.7
2018-Feb-15 06:00N 37°50' W 009°11'2 3.0
2018-Feb-15 05:30N 37°51' W 009°11'1 2.9
2018-Feb-15 05:00N 37°53' W 009°12'1 2.9
2018-Feb-15 04:30N 37°54' W 009°11'1 3.0
2018-Feb-15 04:00N 37°56' W 009°11'2 3.0
2018-Feb-15 03:30N 37°57' W 009°11'1 2.9
2018-Feb-15 03:00N 37°59' W 009°10'1 2.8
2018-Feb-15 02:30N 37°60' W 009°09'1 2.7
2018-Feb-15 02:00N 38°01' W 009°09'2 3.9
2018-Feb-15 01:30N 38°03' W 009°08'4 8.0
2018-Feb-15 01:00N 38°07' W 009°08'4 8.1
2018-Feb-15 00:30N 38°11' W 009°08'4 7.9
2018-Feb-15 00:00N 38°15' W 009°07'4 8.2
2018-Feb-14 23:30N 38°19' W 009°07'4 8.2
2018-Feb-14 22:58N 38°23' W 009°06'3 6.2
2018-Feb-14 22:29N 38°26' W 009°07'0 0.4
2018-Feb-14 22:00N 38°26' W 009°07'0 0.0
2018-Feb-14 21:29N 38°26' W 009°07'0 0.0
2018-Feb-14 21:00N 38°26' W 009°07'0 0.0
2018-Feb-14 20:30N 38°26' W 009°07'0 0.0
2018-Feb-14 20:00N 38°26' W 009°07'0 0.0
2018-Feb-14 17:26N 38°26' W 009°07'0 0.0
2018-Feb-14 16:58N 38°26' W 009°07'0 0.9
2018-Feb-14 16:30N 38°26' W 009°06'5 8.7
2018-Feb-14 15:55N 38°24' W 009°13'55 4.8
2018-Feb-14 04:32N 39°10' W 009°50'0 4.0
2018-Feb-14 04:30N 39°11' W 009°50'  

Dump ship's entire track history